Time;durP1;ratioP1;P1;durP2;ratioP2;P2;SDS_P1;SDS_P2;PMS_P1;PMS_P2;Temp;Humidity;BMP_temperature;BMP_pressure;BME280_temperature;BME280_humidity;BME280_pressure;Samples;Min_cycle;Max_cycle;Signal;HPM_P1;HPM_P2
2022/09/02 00:02:00;;;;;;;2.50;1.00;;;;;;;16.07;62.50;100500.63;5590470;31;34447;-68
2022/09/02 00:05:04;;;;;;;2.90;1.00;;;;;;;16.16;63.31;100485.22;5590568;31;35135;-68
2022/09/02 00:08:07;;;;;;;1.80;0.95;;;;;;;16.10;62.18;100488.72;5576920;31;32415;-68
2022/09/02 00:11:14;;;;;;;3.45;0.90;;;;;;;16.09;62.17;100487.06;5590499;31;34371;-67
2022/09/02 00:14:24;;;;;;;1.98;0.90;;;;;;;16.08;63.79;100494.25;5589742;31;34586;-68
2022/09/02 00:17:28;;;;;;;2.55;1.05;;;;;;;16.07;63.35;100489.13;5590535;31;33956;-68
2022/09/02 00:20:30;;;;;;;1.42;0.80;;;;;;;16.21;62.79;100480.09;5589749;31;34608;-68
2022/09/02 00:23:33;;;;;;;4.85;1.25;;;;;;;16.28;62.01;100483.59;5590533;31;34217;-67
2022/09/02 00:26:37;;;;;;;2.25;1.10;;;;;;;16.27;61.07;100483.78;5589327;31;32828;-68
2022/09/02 00:29:39;;;;;;;3.50;0.90;;;;;;;16.30;60.83;100472.72;5590434;31;34558;-68
2022/09/02 00:32:42;;;;;;;6.15;1.17;;;;;;;16.31;61.48;100480.53;5589069;31;34294;-68
2022/09/02 00:35:46;;;;;;;2.55;0.82;;;;;;;16.23;61.10;100482.56;5590398;31;33965;-68
2022/09/02 00:38:48;;;;;;;1.65;0.90;;;;;;;16.16;60.91;100476.38;5590641;31;34592;-68
2022/09/02 00:41:52;;;;;;;1.65;0.80;;;;;;;16.23;59.96;100472.69;5590292;31;34574;-68
2022/09/02 00:44:56;;;;;;;2.40;1.00;;;;;;;16.24;59.18;100476.19;5590186;31;33956;-68
2022/09/02 00:47:58;;;;;;;2.10;0.70;;;;;;;16.20;59.50;100474.94;5590143;31;35242;-67
2022/09/02 00:51:03;;;;;;;1.67;0.80;;;;;;;16.29;59.94;100468.38;5590172;31;34049;-67
2022/09/02 00:54:10;;;;;;;1.62;0.90;;;;;;;16.22;59.14;100470.19;5590206;31;34461;-67
2022/09/02 00:57:18;;;;;;;2.17;0.93;;;;;;;16.06;60.00;100468.72;5590240;31;33990;-68
2022/09/02 01:00:26;;;;;;;3.40;1.00;;;;;;;15.97;60.58;100465.41;5590254;31;34091;-68
2022/09/02 01:03:38;;;;;;;1.27;0.70;;;;;;;15.94;58.85;100470.31;5589912;31;35490;-68
2022/09/02 01:06:41;;;;;;;3.78;0.88;;;;;;;16.02;58.63;100470.16;5590395;31;34065;-68
2022/09/02 01:09:43;;;;;;;3.83;1.00;;;;;;;16.11;58.78;100462.78;5589864;31;34093;-67
2022/09/02 01:12:46;;;;;;;1.45;0.70;;;;;;;16.22;57.56;100463.00;5589891;31;34715;-67
2022/09/02 01:15:57;;;;;;;1.85;0.80;;;;;;;16.29;57.43;100466.53;5589394;31;34511;-68
2022/09/02 01:19:06;;;;;;;1.45;0.80;;;;;;;16.38;57.00;100449.22;5589945;31;33916;-67
2022/09/02 01:22:22;;;;;;;1.08;0.60;;;;;;;16.39;56.19;100461.59;5589977;31;33981;-67
2022/09/02 01:25:30;;;;;;;2.45;0.70;;;;;;;16.40;56.28;100465.94;5589935;31;33975;-68
2022/09/02 01:28:33;;;;;;;1.45;0.70;;;;;;;16.41;56.34;100458.72;5588945;31;34021;-68
2022/09/02 01:31:36;;;;;;;1.67;0.80;;;;;;;16.48;55.43;100459.53;5589858;31;35366;-68
2022/09/02 01:34:40;;;;;;;3.35;0.80;;;;;;;16.40;55.79;100457.91;5589791;31;34471;-68
2022/09/02 01:37:44;;;;;;;1.65;0.65;;;;;;;16.43;55.15;100462.00;5589830;31;34069;-68
2022/09/02 01:40:57;;;;;;;1.42;0.68;;;;;;;16.41;55.21;100461.41;5589057;31;34012;-68
2022/09/02 01:44:00;;;;;;;1.27;0.70;;;;;;;16.51;54.85;100469.84;5589691;31;33928;-67
2022/09/02 01:47:03;;;;;;;1.90;0.90;;;;;;;16.47;54.68;100463.25;5589680;31;34608;-68
2022/09/02 01:50:08;;;;;;;1.67;0.70;;;;;;;16.52;53.87;100464.28;5589588;31;33907;-68
2022/09/02 01:53:11;;;;;;;1.25;0.65;;;;;;;16.47;54.65;100464.06;5589634;31;34643;-68
2022/09/02 01:56:15;;;;;;;1.55;0.62;;;;;;;16.44;54.38;100464.50;5589595;31;35254;-68
2022/09/02 01:59:19;;;;;;;1.90;0.77;;;;;;;16.42;54.27;100463.84;5589882;31;34611;-68
2022/09/02 02:02:22;;;;;;;1.10;0.90;;;;;;;16.44;54.30;100461.00;5589575;31;34086;-68
2022/09/02 02:05:27;;;;;;;3.65;0.95;;;;;;;16.37;54.20;100452.94;5589449;31;34042;-67
2022/09/02 02:08:30;;;;;;;1.30;0.80;;;;;;;16.41;54.12;100458.72;5589889;31;34115;-68
2022/09/02 02:11:33;;;;;;;1.77;0.60;;;;;;;16.47;53.49;100452.53;5588378;31;32873;-68
2022/09/02 02:14:36;;;;;;;1.23;0.70;;;;;;;16.47;53.63;100449.84;5589419;31;33955;-68
2022/09/02 02:17:39;;;;;;;1.25;0.70;;;;;;;16.47;53.35;100456.03;5589725;31;34458;-68
2022/09/02 02:20:43;;;;;;;1.62;0.75;;;;;;;16.46;53.22;100450.87;5589436;31;34637;-68
2022/09/02 02:23:47;;;;;;;2.20;0.95;;;;;;;16.46;53.12;100445.53;5589495;31;34031;-68
2022/09/02 02:26:50;;;;;;;2.75;0.88;;;;;;;16.41;53.63;100453.38;5589402;31;33917;-68
2022/09/02 02:29:53;;;;;;;1.20;0.60;;;;;;;16.40;52.90;100446.38;5588294;31;34083;-68
2022/09/02 02:32:56;;;;;;;2.03;0.75;;;;;;;16.40;52.85;100446.38;5589569;31;33967;-68
2022/09/02 02:36:00;;;;;;;1.65;0.73;;;;;;;16.36;53.50;100445.12;5589181;31;34717;-68
2022/09/02 02:39:05;;;;;;;1.35;0.88;;;;;;;16.32;53.63;100439.34;5589436;31;34021;-68
2022/09/02 02:42:08;;;;;;;1.20;0.70;;;;;;;16.32;53.71;100438.50;5589366;31;34012;-68
2022/09/02 02:45:11;;;;;;;1.30;0.82;;;;;;;16.28;53.36;100446.13;5589494;31;33901;-68
2022/09/02 02:48:17;;;;;;;0.77;0.57;;;;;;;16.25;53.30;100446.53;5589007;31;33946;-68
2022/09/02 02:51:20;;;;;;;1.90;0.70;;;;;;;16.22;53.80;100443.44;5588968;31;34544;-68
2022/09/02 02:54:24;;;;;;;2.35;0.70;;;;;;;16.21;53.16;100445.31;5587435;31;33916;-68
2022/09/02 02:57:38;;;;;;;0.88;0.60;;;;;;;16.21;53.92;100434.59;5588809;31;33945;-68
2022/09/02 03:00:43;;;;;;;1.00;0.50;;;;;;;16.19;53.67;100442.00;5588785;31;34390;-68
2022/09/02 03:03:47;;;;;;;2.67;0.80;;;;;;;16.17;53.58;100429.84;5588270;31;33895;-68
2022/09/02 03:06:51;;;;;;;1.80;0.70;;;;;;;16.13;53.20;100437.44;5588560;31;34149;-67
2022/09/02 03:09:53;;;;;;;2.03;0.68;;;;;;;16.09;54.45;100439.69;5588660;31;33961;-68
2022/09/02 03:13:01;;;;;;;1.52;0.77;;;;;;;16.12;53.25;100435.00;5588447;31;33961;-68
2022/09/02 03:16:05;;;;;;;1.65;0.77;;;;;;;16.04;53.49;100434.13;5588684;31;33982;-68
2022/09/02 03:19:08;;;;;;;0.93;0.50;;;;;;;16.02;53.93;100432.69;5588766;31;34138;-68
2022/09/02 03:22:11;;;;;;;1.45;0.60;;;;;;;16.00;54.03;100427.53;5588480;31;33903;-68
2022/09/02 03:25:18;;;;;;;3.67;0.80;;;;;;;15.96;54.41;100426.31;5588337;31;35154;-68
2022/09/02 03:28:21;;;;;;;0.88;0.62;;;;;;;15.93;54.08;100426.69;5588052;31;34079;-68
2022/09/02 03:31:26;;;;;;;1.83;0.90;;;;;;;15.93;54.08;100426.69;5588114;31;34679;-68
2022/09/02 03:34:31;;;;;;;2.05;0.90;;;;;;;15.91;54.03;100431.44;5588465;31;35195;-69
2022/09/02 03:37:34;;;;;;;1.33;0.80;;;;;;;15.89;54.32;100430.78;5588337;31;34177;-68
2022/09/02 03:40:38;;;;;;;1.58;0.77;;;;;;;15.84;54.43;100429.75;5588012;31;34024;-68
2022/09/02 03:43:42;;;;;;;1.77;0.70;;;;;;;15.86;53.51;100425.84;5588078;31;33853;-68
2022/09/02 03:46:45;;;;;;;2.85;0.62;;;;;;;15.82;54.12;100429.97;5587948;31;34081;-68
2022/09/02 03:49:48;;;;;;;2.22;0.88;;;;;;;15.83;53.76;100425.44;5587934;31;34656;-68
2022/09/02 03:52:51;;;;;;;1.20;0.75;;;;;;;15.80;53.85;100428.50;5587829;31;34111;-68
2022/09/02 03:55:54;;;;;;;2.58;0.80;;;;;;;15.76;54.48;100436.09;5587765;31;34539;-68
2022/09/02 03:58:59;;;;;;;4.78;0.80;;;;;;;15.66;54.11;100435.66;5587757;31;34098;-67
2022/09/02 04:02:03;;;;;;;2.15;0.85;;;;;;;15.67;54.82;100439.16;5587673;31;33856;-67
2022/09/02 04:05:06;;;;;;;2.35;0.73;;;;;;;15.60;54.94;100433.75;5587937;31;34557;-67
2022/09/02 04:08:18;;;;;;;3.05;0.70;;;;;;;15.57;54.81;100435.00;5590640;31;35447;-67
2022/09/02 04:11:22;;;;;;;1.80;0.70;;;;;;;15.61;54.58;100430.91;5590384;31;33924;-68
2022/09/02 04:14:26;;;;;;;3.25;0.70;;;;;;;15.53;56.08;100444.44;5590934;31;34389;-67
2022/09/02 04:17:29;;;;;;;1.62;0.80;;;;;;;15.52;55.25;100440.13;5589879;31;33984;-67
2022/09/02 04:20:32;;;;;;;1.02;0.70;;;;;;;15.56;55.10;100436.00;5590420;31;34088;-68
2022/09/02 04:23:35;;;;;;;1.55;0.80;;;;;;;15.58;55.08;100435.81;5590717;31;34707;-67
2022/09/02 04:26:38;;;;;;;1.65;0.73;;;;;;;15.57;55.05;100439.53;5589602;31;34028;-67
2022/09/02 04:29:47;;;;;;;3.47;0.70;;;;;;;15.62;54.68;100443.25;5590463;31;33960;-67
2022/09/02 04:32:51;;;;;;;2.03;0.98;;;;;;;15.64;54.83;100446.53;5590181;31;34683;-68
2022/09/02 04:35:54;;;;;;;8.25;1.00;;;;;;;15.65;55.12;100445.50;5590261;31;34015;-67
2022/09/02 04:38:58;;;;;;;2.03;0.70;;;;;;;15.69;54.72;100439.75;5590154;31;34352;-67
2022/09/02 04:42:02;;;;;;;1.77;0.80;;;;;;;15.71;54.69;100443.91;5590254;31;34023;-67
2022/09/02 04:45:06;;;;;;;1.92;0.77;;;;;;;15.71;55.05;100443.06;5589538;31;34784;-68
2022/09/02 04:48:10;;;;;;;3.25;0.82;;;;;;;15.68;54.89;100444.31;5590054;31;33893;-68
2022/09/02 04:51:16;;;;;;;1.75;0.88;;;;;;;15.69;54.85;100443.25;5590078;31;33919;-69
2022/09/02 04:54:19;;;;;;;5.20;0.80;;;;;;;15.71;55.53;100440.41;5590049;31;33863;-68
2022/09/02 04:57:22;;;;;;;1.45;0.80;;;;;;;15.74;55.74;100448.84;5589104;31;33904;-68
2022/09/02 05:00:25;;;;;;;4.78;0.85;;;;;;;15.82;55.52;100450.53;5589897;31;34120;-68
2022/09/02 05:03:29;;;;;;;2.65;1.00;;;;;;;15.75;55.07;100447.00;5590494;31;34405;-68
2022/09/02 05:06:32;;;;;;;3.42;0.80;;;;;;;15.79;55.80;100448.22;5590119;31;34741;-68
2022/09/02 05:09:36;;;;;;;1.70;1.10;;;;;;;15.84;56.03;100445.78;5589832;31;34038;-67
2022/09/02 05:12:40;;;;;;;2.55;0.80;;;;;;;15.76;55.02;100452.16;5589714;31;34114;-68
2022/09/02 05:15:43;;;;;;;3.10;1.08;;;;;;;15.80;56.43;100453.41;5588948;31;32771;-68
2022/09/02 05:18:48;;;;;;;1.40;0.60;;;;;;;15.81;55.41;100451.53;5589150;31;35196;-68
2022/09/02 05:21:57;;;;;;;5.40;0.80;;;;;;;15.87;56.89;100446.22;5589061;31;33077;-68
2022/09/02 05:25:01;;;;;;;1.25;0.70;;;;;;;15.87;55.53;100451.59;5575994;31;32342;-68
2022/09/02 05:28:07;;;;;;;2.45;0.90;;;;;;;15.92;55.00;100449.12;5589142;31;35001;-68
2022/09/02 05:31:14;;;;;;;4.68;0.60;;;;;;;15.98;54.40;100445.62;5589659;31;33997;-68
2022/09/02 05:34:17;;;;;;;2.83;0.88;;;;;;;16.06;54.84;100450.81;5589429;31;34566;-68
2022/09/02 05:37:23;;;;;;;2.80;0.80;;;;;;;16.11;54.52;100450.22;5589816;31;34410;-67
2022/09/02 05:40:26;;;;;;;2.15;0.90;;;;;;;16.15;54.40;100451.47;5589693;31;35415;-67
2022/09/02 05:43:30;;;;;;;5.43;0.88;;;;;;;16.22;54.44;100451.47;5589084;31;34254;-66
2022/09/02 05:46:34;;;;;;;2.58;0.95;;;;;;;16.32;54.55;100457.25;5589244;31;34300;-67
2022/09/02 05:49:37;;;;;;;2.45;0.90;;;;;;;16.46;53.64;100458.91;5589253;31;33926;-67
2022/09/02 05:52:41;;;;;;;2.95;0.70;;;;;;;16.55;53.02;100459.56;5588015;31;33963;-67
2022/09/02 05:55:44;;;;;;;1.40;0.73;;;;;;;16.61;53.38;100442.69;5589217;31;34652;-67
2022/09/02 05:58:48;;;;;;;4.07;0.80;;;;;;;16.66;52.93;100438.38;5588877;31;34758;-67
2022/09/02 06:01:53;;;;;;;2.72;0.90;;;;;;;16.72;52.16;100442.91;5588897;31;33978;-68
2022/09/02 06:04:56;;;;;;;1.70;0.80;;;;;;;16.78;53.26;100451.97;5588065;31;33096;-68
2022/09/02 06:07:59;;;;;;;2.80;0.80;;;;;;;16.79;52.61;100453.63;5589367;31;33865;-68
2022/09/02 06:11:07;;;;;;;4.12;0.90;;;;;;;16.73;52.59;100441.88;5589018;31;34990;-68
2022/09/02 06:14:12;;;;;;;1.10;0.68;;;;;;;16.98;52.21;100450.13;5588639;31;34721;-69
2022/09/02 06:17:16;;;;;;;1.65;0.62;;;;;;;17.13;53.05;100449.91;5588162;31;34628;-67
2022/09/02 06:20:19;;;;;;;1.55;0.80;;;;;;;16.92;51.63;100453.63;5588618;31;33931;-67
2022/09/02 06:23:22;;;;;;;1.80;0.60;;;;;;;17.02;51.90;100448.66;5588639;31;33877;-68
2022/09/02 06:26:26;;;;;;;4.18;0.88;;;;;;;17.24;50.95;100452.75;5588831;31;34175;-67
2022/09/02 06:29:30;;;;;;;1.80;0.90;;;;;;;17.18;51.30;100458.16;5587317;31;34644;-68
2022/09/02 06:32:33;;;;;;;1.35;0.60;;;;;;;17.33;50.72;100448.81;5588789;31;34174;-67
2022/09/02 06:35:38;;;;;;;3.33;0.80;;;;;;;17.31;51.47;100460.78;5587854;31;33423;-68
2022/09/02 06:38:50;;;;;;;1.30;0.70;;;;;;;17.45;51.51;100456.22;5588927;31;34692;-67
2022/09/02 06:41:54;;;;;;;1.48;0.65;;;;;;;17.82;50.61;100460.84;5589124;31;34872;-68
2022/09/02 06:44:59;;;;;;;4.47;1.08;;;;;;;17.78;50.31;100467.69;5587989;31;34438;-68
2022/09/02 06:48:04;;;;;;;5.80;0.80;;;;;;;17.87;50.21;100462.91;5575254;31;32718;-73
2022/09/02 06:51:28;;;;;;;3.62;0.82;;;;;;;17.67;50.14;100469.16;5588576;31;34746;-71
2022/09/02 06:54:32;;;;;;;2.85;0.95;;;;;;;17.54;49.85;100465.69;5588902;31;33840;-71
2022/09/02 06:57:40;;;;;;;3.00;1.20;;;;;;;17.66;50.39;100466.72;5588955;31;33933;-69
2022/09/02 07:00:43;;;;;;;2.90;0.90;;;;;;;17.85;49.81;100463.13;5588697;31;34449;-71
2022/09/02 07:07:08;;;;;;;2.30;0.80;;;;;;;18.26;50.49;100462.69;5588648;31;34095;-68
2022/09/02 07:10:13;;;;;;;2.80;1.87;;;;;;;18.26;49.40;100470.75;5588251;31;34622;-69
2022/09/02 07:13:18;;;;;;;4.93;0.70;;;;;;;18.34;49.21;100472.38;5588357;31;34839;-69
2022/09/02 07:16:21;;;;;;;5.12;1.00;;;;;;;18.43;48.86;100466.53;5574710;31;32592;-68
2022/09/02 07:19:30;;;;;;;2.80;0.70;;;;;;;18.46;49.50;100462.56;5575257;31;34550;-69
2022/09/02 07:22:34;;;;;;;1.83;0.80;;;;;;;18.44;49.07;100462.81;5587568;31;33860;-68
2022/09/02 07:25:40;;;;;;;4.47;0.75;;;;;;;18.52;49.68;100462.53;5587942;31;33910;-67
2022/09/02 07:28:43;;;;;;;2.90;0.90;;;;;;;19.09;48.93;100469.56;5587727;31;33908;-68
2022/09/02 07:31:48;;;;;;;2.10;0.70;;;;;;;19.33;48.79;100464.34;5587096;31;32275;-68
2022/09/02 07:34:51;;;;;;;1.42;0.95;;;;;;;19.52;47.13;100466.03;5587007;31;33634;-68
2022/09/02 07:37:53;;;;;;;3.60;1.23;;;;;;;19.07;47.33;100468.94;5588028;31;34581;-69
2022/09/02 07:40:56;;;;;;;3.12;0.85;;;;;;;19.35;47.02;100476.53;5588764;31;34632;-66
2022/09/02 07:44:04;;;;;;;2.92;0.82;;;;;;;18.77;47.96;100481.41;5590254;31;34572;-70
2022/09/02 07:47:07;;;;;;;1.87;0.80;;;;;;;18.80;48.74;100469.38;5576054;31;33838;-67
2022/09/02 07:50:12;;;;;;;1.20;0.70;;;;;;;18.73;49.03;100474.00;5589846;31;33523;-67
2022/09/02 07:53:25;;;;;;;3.22;0.90;;;;;;;19.21;47.63;100472.34;5589459;31;34061;-68
2022/09/02 07:56:28;;;;;;;1.55;1.00;;;;;;;19.39;47.40;100480.44;5590723;31;34261;-68
2022/09/02 07:59:31;;;;;;;6.50;0.93;;;;;;;19.30;47.96;100468.31;5589655;31;32407;-68
2022/09/02 08:02:34;;;;;;;7.40;0.90;;;;;;;19.85;45.86;100468.34;5589761;31;34252;-68
2022/09/02 08:05:38;;;;;;;2.97;0.95;;;;;;;19.94;45.88;100464.31;5590556;31;33891;-69
2022/09/02 08:08:41;;;;;;;3.78;1.12;;;;;;;19.82;45.96;100466.09;5589483;31;34243;-68
2022/09/02 08:11:46;;;;;;;5.05;0.93;;;;;;;19.69;45.85;100467.09;5589400;31;34315;-69
2022/09/02 08:14:49;;;;;;;4.35;1.30;;;;;;;19.58;46.94;100465.16;5589188;31;32919;-69
2022/09/02 08:17:52;;;;;;;2.08;0.80;;;;;;;20.17;46.42;100469.78;5590201;31;34580;-68
2022/09/02 08:20:55;;;;;;;2.12;0.65;;;;;;;19.79;47.71;100472.78;5590167;31;34045;-68
2022/09/02 08:23:59;;;;;;;3.58;0.88;;;;;;;20.57;46.52;100469.25;5590263;31;33970;-69
2022/09/02 08:27:01;;;;;;;5.25;1.00;;;;;;;20.18;46.95;100470.63;5589449;31;33308;-69
2022/09/02 08:30:09;;;;;;;2.83;0.80;;;;;;;20.20;46.10;100463.13;5589146;31;33513;-69
2022/09/02 08:33:11;;;;;;;1.87;0.90;;;;;;;19.99;46.52;100461.75;5589826;31;33887;-69
2022/09/02 08:36:14;;;;;;;3.22;0.90;;;;;;;20.08;47.39;100471.16;5589906;31;34377;-68
2022/09/02 08:39:17;;;;;;;1.85;0.70;;;;;;;19.78;46.69;100462.22;5589780;31;34547;-69
2022/09/02 08:42:23;;;;;;;2.20;0.93;;;;;;;19.77;46.77;100460.56;5589858;31;35226;-68
2022/09/02 08:45:26;;;;;;;3.42;0.70;;;;;;;20.30;46.51;100455.31;5589842;31;34881;-68
2022/09/02 08:48:40;;;;;;;2.83;1.20;;;;;;;20.19;45.92;100451.50;5589647;31;34576;-68
2022/09/02 08:51:55;;;;;;;4.97;0.90;;;;;;;21.40;43.83;100452.91;5589023;31;33951;-67
2022/09/02 08:55:02;;;;;;;2.58;0.70;;;;;;;21.21;44.92;100447.63;5589744;31;34747;-68
2022/09/02 08:58:05;;;;;;;1.87;0.80;;;;;;;20.88;45.28;100455.47;5589839;31;34708;-69
2022/09/02 09:01:29;;;;;;;1.73;1.10;;;;;;;22.38;41.76;100453.56;5588818;31;33059;-68
2022/09/02 09:04:57;;;;;;;2.37;1.02;;;;;;;21.97;42.34;100457.41;5589654;31;33973;-67
2022/09/02 09:08:15;;;;;;;3.17;0.80;;;;;;;20.40;45.37;100450.22;5588856;31;33312;-68
2022/09/02 09:11:38;;;;;;;3.78;1.00;;;;;;;20.39;47.07;100445.88;5589991;31;34535;-66
2022/09/02 09:14:56;;;;;;;3.30;1.08;;;;;;;21.13;45.75;100447.16;5589614;31;34638;-69
2022/09/02 09:18:03;;;;;;;1.85;0.90;;;;;;;21.10;46.37;100440.34;5589762;31;34884;-68
2022/09/02 09:21:07;;;;;;;1.77;0.82;;;;;;;20.91;45.72;100443.41;5588656;31;32860;-69
2022/09/02 09:24:24;;;;;;;1.73;0.80;;;;;;;21.05;44.46;100442.94;5589453;31;34230;-69
2022/09/02 09:27:27;;;;;;;3.92;1.00;;;;;;;20.82;46.17;100437.50;5588424;31;33829;-69
2022/09/02 09:30:29;;;;;;;4.87;1.10;;;;;;;20.78;46.46;100441.72;5588707;31;33951;-67
2022/09/02 09:33:32;;;;;;;1.42;1.00;;;;;;;20.65;46.05;100442.78;5589588;31;33886;-68
2022/09/02 09:36:38;;;;;;;6.28;1.33;;;;;;;20.66;45.53;100439.03;5588626;31;34008;-69
2022/09/02 09:39:41;;;;;;;4.85;1.35;;;;;;;21.17;48.00;100442.94;5588884;31;32605;-68
2022/09/02 09:42:45;;;;;;;1.58;1.02;;;;;;;20.89;46.41;100440.09;5588475;31;32706;-69
2022/09/02 09:45:51;;;;;;;1.70;0.90;;;;;;;20.89;46.25;100437.41;5589295;31;33888;-69
2022/09/02 09:48:54;;;;;;;5.12;1.10;;;;;;;20.56;47.00;100435.25;5588198;31;33041;-68
2022/09/02 09:51:58;;;;;;;4.07;1.00;;;;;;;21.27;45.35;100426.16;5590089;31;34058;-67
2022/09/02 09:55:20;;;;;;;2.10;1.05;;;;;;;21.81;44.85;100432.97;5588511;31;34033;-69
2022/09/02 09:58:39;;;;;;;5.15;1.00;;;;;;;21.41;45.12;100428.38;5589261;31;33959;-67
2022/09/02 10:01:49;;;;;;;3.70;0.90;;;;;;;20.99;46.64;100416.06;5589224;31;34035;-67
2022/09/02 10:05:08;;;;;;;4.60;1.25;;;;;;;21.42;45.04;100413.81;5588359;31;34142;-68
2022/09/02 10:08:16;;;;;;;1.90;1.15;;;;;;;21.47;45.97;100411.25;5589191;31;34594;-69
2022/09/02 10:11:22;;;;;;;1.93;1.00;;;;;;;21.29;45.06;100407.88;5589244;31;35394;-68
2022/09/02 10:14:32;;;;;;;2.03;1.05;;;;;;;21.26;44.68;100411.84;5589241;31;34648;-68
2022/09/02 10:18:13;;;;;;;2.42;1.20;;;;;;;21.62;45.29;100416.97;5589320;31;33923;-67
2022/09/02 10:22:03;;;;;;;5.25;1.05;;;;;;;21.97;46.05;100414.16;5589126;31;34120;-68
2022/09/02 10:25:40;;;;;;;2.47;1.10;;;;;;;22.04;44.05;100412.12;5588979;31;33981;-68
2022/09/02 10:29:08;;;;;;;3.35;1.30;;;;;;;22.34;43.08;100421.84;5582667;31;151998;-68
2022/09/02 10:32:11;;;;;;;2.37;0.90;;;;;;;23.19;41.68;100416.22;5588820;31;34370;-69
2022/09/02 10:35:36;;;;;;;1.92;0.95;;;;;;;24.19;38.68;100422.06;5574869;31;32334;-68
2022/09/02 10:38:47;;;;;;;2.08;1.00;;;;;;;24.13;38.63;100416.81;5574977;31;34577;-69
2022/09/02 10:41:54;;;;;;;6.97;1.23;;;;;;;23.67;41.14;100415.50;5588779;31;33975;-68
2022/09/02 10:45:42;;;;;;;11.43;1.40;;;;;;;24.31;39.39;100408.34;5588086;31;32500;-68
2022/09/02 10:48:55;;;;;;;3.90;1.20;;;;;;;23.73;41.29;100412.59;5509023;32;34540;-68
2022/09/02 10:52:07;;;;;;;1.05;0.88;;;;;;;22.46;42.53;100415.28;5509082;32;33957;-68
2022/09/02 10:55:16;;;;;;;5.32;1.20;;;;;;;23.27;41.56;100413.87;5495857;32;34204;-67
2022/09/02 10:58:47;;;;;;;6.57;1.20;;;;;;;23.41;41.02;100411.62;5508860;32;34560;-67
2022/09/02 11:02:24;;;;;;;3.05;0.90;;;;;;;23.53;40.15;100411.53;5509095;32;34225;-68
2022/09/02 11:05:37;;;;;;;1.95;1.15;;;;;;;24.14;39.87;100413.84;5495627;32;33640;-66
2022/09/02 11:08:45;;;;;;;2.83;1.05;;;;;;;23.05;41.60;100413.00;5508863;32;33944;-67
2022/09/02 11:12:02;;;;;;;4.75;1.12;;;;;;;23.22;41.05;100416.53;5495995;32;33953;-68
2022/09/02 11:15:22;;;;;;;4.15;1.20;;;;;;;23.10;41.51;100409.56;5509403;32;34085;-68
2022/09/02 11:18:43;;;;;;;3.25;1.25;;;;;;;23.19;42.12;100411.59;5518053;31;33330;-68
2022/09/02 11:22:00;;;;;;;3.40;1.00;;;;;;;23.89;41.27;100407.34;5577187;31;32902;-66
2022/09/02 11:25:25;;;;;;;2.80;1.10;;;;;;;24.01;39.44;100403.41;5590069;31;32827;-68
2022/09/02 11:28:33;;;;;;;3.25;1.40;;;;;;;24.14;40.07;100396.78;5590203;31;34225;-68
2022/09/02 11:31:43;;;;;;;4.30;1.58;;;;;;;23.21;41.81;100393.22;5590752;31;34609;-68
2022/09/02 11:34:48;;;;;;;2.75;1.20;;;;;;;24.29;40.71;100393.41;5590958;31;33896;-68
2022/09/02 11:37:53;;;;;;;3.10;1.17;;;;;;;24.58;37.95;100401.00;5590952;31;34668;-68
2022/09/02 11:40:56;;;;;;;3.17;1.10;;;;;;;24.92;37.89;100390.69;5590012;31;34099;-68
2022/09/02 11:44:50;;;;;;;5.40;1.37;;;;;;;24.62;38.65;100390.44;5590690;31;33972;-68
2022/09/02 11:48:21;;;;;;;1.55;1.10;;;;;;;26.43;34.92;100388.81;5590422;31;34155;-68
2022/09/02 11:51:31;;;;;;;;;;;;;;;30.07;29.40;100392.53;5590170;31;33019;-69
2022/09/02 11:54:39;;;;;;;3.78;1.05;;;;;;;29.86;27.90;100387.66;5590465;31;34777;-69
2022/09/02 11:57:51;;;;;;;3.30;1.40;;;;;;;30.64;26.93;100382.38;5589704;31;33289;-68
2022/09/02 12:00:54;;;;;;;6.45;1.70;;;;;;;31.91;25.99;100383.37;5590320;31;34795;-67
2022/09/02 12:04:19;;;;;;;3.58;1.15;;;;;;;31.52;26.15;100381.19;5589683;31;32925;-69
2022/09/02 12:07:47;;;;;;;1.85;1.10;;;;;;;30.86;26.93;100376.19;5590319;31;33934;-69
2022/09/02 12:10:50;;;;;;;3.00;1.20;;;;;;;31.97;25.26;100376.66;5589412;31;33721;-69
2022/09/02 12:13:53;;;;;;;2.92;1.10;;;;;;;34.26;23.09;100372.03;5589414;31;32605;-66
2022/09/02 12:17:02;;;;;;;2.65;1.30;;;;;;;33.85;22.83;100381.56;5590364;31;33965;-70
2022/09/02 12:20:11;;;;;;;3.90;1.40;;;;;;;31.14;25.91;100374.31;5589372;31;33961;-68
2022/09/02 12:23:48;;;;;;;1.85;1.27;;;;;;;29.73;27.43;100365.38;5589768;31;33354;-66
2022/09/02 12:26:52;;;;;;;4.15;1.15;;;;;;;29.92;27.05;100368.16;5589602;31;34054;-69
2022/09/02 12:29:56;;;;;;;4.10;1.20;;;;;;;31.02;26.26;100364.69;5590047;31;35277;-68
2022/09/02 12:33:03;;;;;;;5.93;1.30;;;;;;;31.63;25.07;100366.19;5590010;31;34105;-68
2022/09/02 12:36:09;;;;;;;2.83;1.17;;;;;;;30.72;27.57;100364.41;5590228;31;34667;-69
2022/09/02 12:39:21;;;;;;;3.67;1.23;;;;;;;28.98;29.66;100353.47;5589367;31;34724;-69
2022/09/02 12:42:32;;;;;;;2.83;1.10;;;;;;;27.77;31.57;100348.97;5589905;31;34004;-68
2022/09/02 12:45:42;;;;;;;2.62;1.08;;;;;;;27.92;31.23;100349.69;5590079;31;33975;-69
2022/09/02 12:48:58;;;;;;;6.57;1.55;;;;;;;29.25;29.54;100347.41;5589397;31;33182;-69
2022/09/02 12:52:05;;;;;;;1.85;1.00;;;;;;;29.67;28.81;100344.69;5590054;31;34562;-68
2022/09/02 12:55:08;;;;;;;5.80;1.50;;;;;;;27.30;31.56;100344.03;5589833;31;34613;-63
2022/09/02 12:58:18;;;;;;;2.28;1.42;;;;;;;26.18;35.15;100349.59;5589851;31;34228;-68
2022/09/02 13:02:03;;;;;;;3.97;1.33;;;;;;;26.39;33.81;100342.28;5589413;31;33990;-69
2022/09/02 13:05:27;;;;;;;8.15;2.28;;;;;;;27.60;31.48;100327.53;5555171;31;34932;-68
2022/09/02 13:08:41;;;;;;;3.70;1.30;;;;;;;28.09;31.58;100331.03;5589749;31;34658;-69
2022/09/02 13:12:15;;;;;;;4.60;1.40;;;;;;;28.19;31.35;100332.06;5589818;31;33909;-69
2022/09/02 13:15:42;;;;;;;2.20;1.20;;;;;;;28.39;30.89;100326.44;5588805;31;34646;-65
2022/09/02 13:19:08;;;;;;;6.37;4.93;;;;;;;26.60;33.53;100327.56;5589637;31;34785;-68
2022/09/02 13:23:02;;;;;;;2.72;1.17;;;;;;;26.41;34.95;100328.41;5589682;31;34132;-67
2022/09/02 13:26:11;;;;;;;4.68;1.17;;;;;;;26.37;33.69;100326.25;5563173;31;34287;-69
2022/09/02 13:29:43;;;;;;;;;;;;;;;30.48;27.29;100323.50;5589027;31;32772;-69
2022/09/02 13:32:55;;;;;;;1.58;1.08;;;;;;;31.70;26.35;100330.12;5589775;31;34739;-68
2022/09/02 13:35:59;;;;;;;4.05;1.20;;;;;;;30.51;26.93;100328.34;5589190;31;34014;-68
2022/09/02 13:39:19;;;;;;;2.67;1.30;;;;;;;29.50;29.21;100319.78;5588099;31;32789;-69
2022/09/02 13:42:24;;;;;;;3.58;1.10;;;;;;;30.56;27.45;100322.78;5589067;31;34012;-68
2022/09/02 13:45:36;;;;;;;5.75;1.40;;;;;;;28.58;31.03;100308.25;5588746;31;32431;-69
2022/09/02 13:48:39;;;;;;;4.25;1.50;;;;;;;28.79;30.59;100312.44;5588643;31;34655;-68
2022/09/02 13:51:46;;;;;;;2.97;1.20;;;;;;;28.48;30.33;100317.34;5588946;31;34008;-68
2022/09/02 13:54:55;;;;;;;5.25;1.15;;;;;;;28.24;30.43;100312.94;5588308;31;33951;-69
2022/09/02 13:58:05;;;;;;;2.97;1.12;;;;;;;26.66;32.46;100304.72;5589452;31;34099;-69
2022/09/02 14:01:26;;;;;;;3.92;1.35;;;;;;;24.79;36.65;100308.88;5588780;31;33987;-69
2022/09/02 14:04:32;;;;;;;3.97;1.35;;;;;;;25.15;35.09;100305.31;5588884;31;34105;-69
2022/09/02 14:07:39;;;;;;;2.95;1.50;;;;;;;25.12;36.01;100299.59;5588191;31;34644;-69
2022/09/02 14:10:44;;;;;;;2.30;1.30;;;;;;;24.53;38.26;100305.22;5587853;31;33390;-68
2022/09/02 14:13:49;;;;;;;1.80;1.27;;;;;;;24.28;37.75;100299.59;5587549;31;32878;-69
2022/09/02 14:17:21;;;;;;;4.62;1.48;;;;;;;24.96;37.89;100298.69;5589128;31;34621;-69
2022/09/02 14:20:24;;;;;;;3.60;1.90;;;;;;;26.11;35.87;100313.69;5588859;31;34654;-68
2022/09/02 14:23:33;;;;;;;2.35;1.20;;;;;;;26.01;36.71;100305.53;5589083;31;33956;-68
2022/09/02 14:26:40;;;;;;;3.10;1.30;;;;;;;26.47;33.94;100306.38;5575234;31;32691;-68
2022/09/02 14:29:44;;;;;;;5.57;1.40;;;;;;;26.15;35.58;100309.34;5587421;31;32687;-67
2022/09/02 14:32:47;;;;;;;3.30;1.37;;;;;;;24.81;37.04;100310.25;5587303;31;33072;-69
2022/09/02 14:36:20;;;;;;;3.25;1.42;;;;;;;24.59;37.96;100304.97;5587426;31;33943;-70
2022/09/02 14:39:22;;;;;;;4.07;1.23;;;;;;;24.26;38.70;100299.84;5581140;31;33939;-69
2022/09/02 14:42:26;;;;;;;3.80;1.58;;;;;;;24.34;39.01;100304.00;5588682;31;34272;-68